Time;durP1;ratioP1;P1;durP2;ratioP2;P2;SDS_P1;SDS_P2;PMS_P1;PMS_P2;Temp;Humidity;BMP_temperature;BMP_pressure;BME280_temperature;BME280_humidity;BME280_pressure;Samples;Min_cycle;Max_cycle;Signal;HPM_P1;HPM_P2
2022/07/18 00:01:02;;;;;;;0.10;0.10;;;;;;;;;;6166949;23;20012;-93
2022/07/18 00:03:27;;;;;;;0.20;0.20;;;;;;;;;;6167519;23;20012;-92
2022/07/18 00:05:53;;;;;;;0.10;0.10;;;;;;;;;;6166977;23;20043;-91
2022/07/18 00:08:19;;;;;;;0.10;0.10;;;;;;;;;;6166707;23;20018;-90
2022/07/18 00:10:45;;;;;;;0.10;0.10;;;;;;;;;;6191559;23;20050;-91
2022/07/18 00:13:11;;;;;;;0.10;0.10;;;;;;;;;;6166970;23;20012;-91
2022/07/18 00:15:37;;;;;;;0.10;0.10;;;;;;;;;;6191647;23;20082;-91
2022/07/18 00:18:03;;;;;;;0.10;0.10;;;;;;;;;;6166723;23;20016;-91
2022/07/18 00:20:29;;;;;;;0.10;0.10;;;;;;;;;;6167208;23;20350;-93
2022/07/18 00:22:56;;;;;;;0.10;0.10;;;;;;;;;;6192078;23;20023;-93
2022/07/18 00:25:22;;;;;;;0.10;0.10;;;;;;;;;;6167855;23;20453;-93
2022/07/18 00:27:48;;;;;;;0.17;0.17;;;;;;;;;;6167062;23;20377;-93
2022/07/18 00:30:14;;;;;;;0.10;0.10;;;;;;;;;;6166483;23;20460;-93
2022/07/18 00:32:43;;;;;;;0.10;0.10;;;;;;;;;;6122352;23;1079785;-93
2022/07/18 00:35:09;;;;;;;0.20;0.20;;;;;;;;;;6171300;23;20082;-95
2022/07/18 00:37:35;;;;;;;0.10;0.10;;;;;;;;;;6168784;23;20023;-92
2022/07/18 00:40:01;;;;;;;0.30;0.30;;;;;;;;;;6168063;23;20348;-93
2022/07/18 00:42:27;;;;;;;0.10;0.10;;;;;;;;;;6168928;23;20016;-92
2022/07/18 00:44:54;;;;;;;0.10;0.10;;;;;;;;;;6168275;23;20012;-91
2022/07/18 00:47:20;;;;;;;0.10;0.10;;;;;;;;;;6170216;23;20095;-93
2022/07/18 00:49:46;;;;;;;0.10;0.10;;;;;;;;;;6170075;23;20089;-92
2022/07/18 00:52:12;;;;;;;0.10;0.10;;;;;;;;;;6195641;23;20035;-92
2022/07/18 00:54:39;;;;;;;0.10;0.10;;;;;;;;;;6169949;23;20016;-93
2022/07/18 00:57:07;;;;;;;0.10;0.10;;;;;;;;;;6195254;23;20046;-92
2022/07/18 01:02:28;;;;;;;0.10;0.10;;;;;;;;;;6114966;23;20146;-93
2022/07/18 01:04:54;;;;;;;0.10;0.10;;;;;;;;;;6170708;23;20044;-94
2022/07/18 01:07:20;;;;;;;0.10;0.10;;;;;;;;;;6170139;23;20019;-93
2022/07/18 01:09:46;;;;;;;0.10;0.10;;;;;;;;;;6169484;23;20013;-91
2022/07/18 01:12:12;;;;;;;0.10;0.10;;;;;;;;;;6198854;23;20015;-90
2022/07/18 01:14:38;;;;;;;0.10;0.10;;;;;;;;;;6170829;23;20051;-90
2022/07/18 01:17:11;;;;;;;0.10;0.10;;;;;;;;;;6170075;23;20066;-92
2022/07/18 01:19:37;;;;;;;0.10;0.10;;;;;;;;;;6195135;23;20461;-91
2022/07/18 01:22:03;;;;;;;0.10;0.10;;;;;;;;;;6173173;23;20012;-91
2022/07/18 01:24:29;;;;;;;0.10;0.10;;;;;;;;;;6198316;23;20015;-91
2022/07/18 01:26:55;;;;;;;0.10;0.10;;;;;;;;;;6200032;23;20391;-92
2022/07/18 01:29:21;;;;;;;0.10;0.10;;;;;;;;;;6173212;23;20019;-91
2022/07/18 01:31:47;;;;;;;0.10;0.10;;;;;;;;;;6176570;23;20062;-91
2022/07/18 01:34:13;;;;;;;0.10;0.10;;;;;;;;;;6176977;23;20059;-91
2022/07/18 01:36:39;;;;;;;0.10;0.10;;;;;;;;;;6198777;23;20095;-92
2022/07/18 01:39:05;;;;;;;0.10;0.10;;;;;;;;;;6199243;23;20016;-91
2022/07/18 01:41:31;;;;;;;0.10;0.10;;;;;;;;;;6174357;23;20016;-91
2022/07/18 01:43:57;;;;;;;0.10;0.10;;;;;;;;;;6194491;23;20016;-92
2022/07/18 01:46:23;;;;;;;0.10;0.10;;;;;;;;;;6169705;23;20014;-92
2022/07/18 01:48:49;;;;;;;0.10;0.10;;;;;;;;;;6169656;23;20468;-92
2022/07/18 01:51:15;;;;;;;0.10;0.10;;;;;;;;;;6194548;23;20008;-92
2022/07/18 01:53:41;;;;;;;0.10;0.10;;;;;;;;;;6194730;23;20008;-92
2022/07/18 01:56:08;;;;;;;0.10;0.10;;;;;;;;;;6194515;23;20009;-92
2022/07/18 01:58:34;;;;;;;0.10;0.10;;;;;;;;;;6169212;23;20016;-93
2022/07/18 02:01:00;;;;;;;0.10;0.10;;;;;;;;;;6197319;23;20018;-92
2022/07/18 02:03:26;;;;;;;0.10;0.10;;;;;;;;;;6213646;23;20035;-91
2022/07/18 02:05:52;;;;;;;0.10;0.10;;;;;;;;;;6189678;23;20036;-91
2022/07/18 02:08:18;;;;;;;0.17;0.17;;;;;;;;;;6190018;23;20016;-92
2022/07/18 02:10:44;;;;;;;0.10;0.10;;;;;;;;;;6188469;23;20011;-94
2022/07/18 02:13:10;;;;;;;0.10;0.10;;;;;;;;;;6201283;23;20434;-92
2022/07/18 02:15:36;;;;;;;0.10;0.10;;;;;;;;;;6170252;23;20031;-94
2022/07/18 02:18:02;;;;;;;0.10;0.10;;;;;;;;;;6169219;23;20012;-91
2022/07/18 02:20:36;;;;;;;0.10;0.10;;;;;;;;;;6174808;23;20050;-94
2022/07/18 02:23:02;;;;;;;0.10;0.10;;;;;;;;;;6168748;23;20054;-88
2022/07/18 02:25:28;;;;;;;0.20;0.20;;;;;;;;;;6168804;23;20016;-87
2022/07/18 02:27:54;;;;;;;0.10;0.10;;;;;;;;;;6193267;23;20063;-88
2022/07/18 02:30:21;;;;;;;0.10;0.10;;;;;;;;;;6193625;23;20011;-87
2022/07/18 02:32:47;;;;;;;0.10;0.10;;;;;;;;;;6206145;23;20519;-86
2022/07/18 02:35:13;;;;;;;0.10;0.10;;;;;;;;;;6188600;23;20016;-87
2022/07/18 02:37:41;;;;;;;0.10;0.10;;;;;;;;;;6192220;23;20043;-86
2022/07/18 02:40:07;;;;;;;0.10;0.10;;;;;;;;;;6168996;23;20095;-86
2022/07/18 02:42:33;;;;;;;0.10;0.10;;;;;;;;;;6218473;23;20345;-87
2022/07/18 02:44:59;;;;;;;0.10;0.10;;;;;;;;;;6193339;23;20016;-87
2022/07/18 02:47:25;;;;;;;0.10;0.10;;;;;;;;;;6193169;23;20016;-90
2022/07/18 02:49:51;;;;;;;0.10;0.10;;;;;;;;;;6168397;23;20011;-89
2022/07/18 02:52:17;;;;;;;0.10;0.10;;;;;;;;;;6168463;23;20016;-89
2022/07/18 02:54:43;;;;;;;0.10;0.10;;;;;;;;;;6168428;23;20036;-90
2022/07/18 02:57:09;;;;;;;0.20;0.20;;;;;;;;;;6193749;23;20092;-87
2022/07/18 02:59:35;;;;;;;0.10;0.10;;;;;;;;;;6168572;23;20164;-86
2022/07/18 03:02:01;;;;;;;0.10;0.10;;;;;;;;;;6218139;23;20035;-86
2022/07/18 03:04:27;;;;;;;0.10;0.10;;;;;;;;;;6193028;23;20287;-86
2022/07/18 03:06:53;;;;;;;0.10;0.10;;;;;;;;;;6168232;23;20095;-86
2022/07/18 03:09:19;;;;;;;0.10;0.10;;;;;;;;;;6193034;23;20043;-88
2022/07/18 03:11:45;;;;;;;0.10;0.10;;;;;;;;;;6193140;23;20012;-87
2022/07/18 03:14:11;;;;;;;0.10;0.10;;;;;;;;;;6193216;23;20008;-87
2022/07/18 03:16:37;;;;;;;0.10;0.10;;;;;;;;;;6193174;23;20023;-87
2022/07/18 03:19:03;;;;;;;0.10;0.10;;;;;;;;;;6168089;23;20012;-88
2022/07/18 03:21:29;;;;;;;0.10;0.10;;;;;;;;;;6193108;23;20050;-86
2022/07/18 03:23:55;;;;;;;0.10;0.10;;;;;;;;;;6193024;23;20027;-87
2022/07/18 03:26:21;;;;;;;0.10;0.10;;;;;;;;;;6167910;23;20023;-87
2022/07/18 03:28:47;;;;;;;0.10;0.10;;;;;;;;;;6192873;23;20012;-88
2022/07/18 03:31:14;;;;;;;0.10;0.10;;;;;;;;;;6167960;23;20096;-88
2022/07/18 03:33:40;;;;;;;0.10;0.10;;;;;;;;;;6193428;23;20082;-87
2022/07/18 03:36:06;;;;;;;0.10;0.10;;;;;;;;;;6168538;23;20493;-87
2022/07/18 03:38:32;;;;;;;0.10;0.10;;;;;;;;;;6168103;23;20048;-87
2022/07/18 03:40:58;;;;;;;0.10;0.10;;;;;;;;;;6217743;23;20059;-87
2022/07/18 03:43:24;;;;;;;0.10;0.10;;;;;;;;;;6192902;23;20012;-87
2022/07/18 03:45:50;;;;;;;0.10;0.10;;;;;;;;;;6168118;23;20069;-88
2022/07/18 03:48:16;;;;;;;0.10;0.10;;;;;;;;;;6192545;23;20012;-86
2022/07/18 03:50:42;;;;;;;0.10;0.10;;;;;;;;;;6193058;23;20087;-87
2022/07/18 03:53:08;;;;;;;0.10;0.10;;;;;;;;;;6217740;23;20019;-87
2022/07/18 03:55:34;;;;;;;0.10;0.10;;;;;;;;;;6168083;23;20008;-87
2022/07/18 03:58:00;;;;;;;0.10;0.10;;;;;;;;;;6192779;23;20087;-86
2022/07/18 04:00:26;;;;;;;0.10;0.10;;;;;;;;;;6217740;23;20047;-86
2022/07/18 04:02:51;;;;;;;0.10;0.10;;;;;;;;;;6167906;23;20012;-87
2022/07/18 04:05:17;;;;;;;0.10;0.10;;;;;;;;;;6168026;23;20146;-87
2022/07/18 04:07:43;;;;;;;0.15;0.15;;;;;;;;;;6192878;23;20323;-86
2022/07/18 04:10:10;;;;;;;0.10;0.10;;;;;;;;;;6217709;23;20098;-88
2022/07/18 04:12:36;;;;;;;0.10;0.10;;;;;;;;;;6168149;23;20016;-88
2022/07/18 04:15:03;;;;;;;0.10;0.10;;;;;;;;;;6167970;23;20047;-88
2022/07/18 04:17:29;;;;;;;0.10;0.10;;;;;;;;;;6193146;23;20020;-88
2022/07/18 04:19:55;;;;;;;0.10;0.10;;;;;;;;;;6192929;23;20035;-87
2022/07/18 04:22:21;;;;;;;0.10;0.10;;;;;;;;;;6169487;23;20059;-87
2022/07/18 04:24:47;;;;;;;0.10;0.10;;;;;;;;;;6169821;23;20510;-90
2022/07/18 04:27:13;;;;;;;0.10;0.10;;;;;;;;;;6195103;23;20016;-88
2022/07/18 04:29:39;;;;;;;0.10;0.10;;;;;;;;;;6194599;23;20016;-88
2022/07/18 04:32:05;;;;;;;0.10;0.10;;;;;;;;;;6194256;23;20341;-87
2022/07/18 04:34:31;;;;;;;0.20;0.20;;;;;;;;;;6169697;23;20015;-88
2022/07/18 04:36:57;;;;;;;0.10;0.10;;;;;;;;;;6169727;23;20043;-88
2022/07/18 04:39:23;;;;;;;0.10;0.10;;;;;;;;;;6194399;23;20083;-87
2022/07/18 04:41:49;;;;;;;0.10;0.10;;;;;;;;;;6194709;23;20027;-88
2022/07/18 04:44:15;;;;;;;0.10;0.10;;;;;;;;;;6194598;23;20014;-88
2022/07/18 04:46:41;;;;;;;0.10;0.10;;;;;;;;;;6194298;23;20384;-88
2022/07/18 04:49:07;;;;;;;0.10;0.10;;;;;;;;;;6219295;23;20012;-88
2022/07/18 04:51:33;;;;;;;0.13;0.13;;;;;;;;;;6194735;23;20008;-88
2022/07/18 04:53:59;;;;;;;0.10;0.10;;;;;;;;;;6194590;23;20023;-88
2022/07/18 04:56:25;;;;;;;0.10;0.10;;;;;;;;;;6194354;23;20012;-89
2022/07/18 04:58:51;;;;;;;0.20;0.20;;;;;;;;;;6169562;23;20008;-88
2022/07/18 05:01:17;;;;;;;0.10;0.10;;;;;;;;;;6194444;23;20012;-88
2022/07/18 05:03:43;;;;;;;0.10;0.10;;;;;;;;;;6219466;23;20014;-88
2022/07/18 05:06:09;;;;;;;0.10;0.10;;;;;;;;;;6219265;23;20091;-87
2022/07/18 05:08:35;;;;;;;0.10;0.10;;;;;;;;;;6194206;23;20437;-87
2022/07/18 05:11:00;;;;;;;0.20;0.20;;;;;;;;;;6169500;23;20038;-87
2022/07/18 05:13:26;;;;;;;0.10;0.10;;;;;;;;;;6194201;23;20499;-87
2022/07/18 05:15:52;;;;;;;0.10;0.10;;;;;;;;;;6194150;23;20012;-87
2022/07/18 05:18:18;;;;;;;0.10;0.10;;;;;;;;;;6169339;23;20099;-86
2022/07/18 05:20:44;;;;;;;0.10;0.10;;;;;;;;;;6194266;23;20056;-88
2022/07/18 05:23:11;;;;;;;0.10;0.10;;;;;;;;;;6194014;23;20012;-87
2022/07/18 05:25:37;;;;;;;0.10;0.10;;;;;;;;;;6169347;23;20089;-88
2022/07/18 05:28:03;;;;;;;0.10;0.10;;;;;;;;;;6194258;23;20427;-87
2022/07/18 05:30:29;;;;;;;0.10;0.10;;;;;;;;;;6218826;23;20012;-88
2022/07/18 05:32:55;;;;;;;0.10;0.10;;;;;;;;;;6193868;23;20465;-87
2022/07/18 05:35:20;;;;;;;0.10;0.10;;;;;;;;;;6169272;23;20012;-89
2022/07/18 05:37:46;;;;;;;0.10;0.10;;;;;;;;;;6169294;23;20051;-89
2022/07/18 05:40:13;;;;;;;0.10;0.10;;;;;;;;;;6193869;23;20087;-88
2022/07/18 05:42:39;;;;;;;0.10;0.10;;;;;;;;;;6194128;23;20231;-86
2022/07/18 05:45:06;;;;;;;0.10;0.10;;;;;;;;;;6218865;23;20016;-88
2022/07/18 05:47:32;;;;;;;0.10;0.10;;;;;;;;;;6193853;23;20334;-87
2022/07/18 05:49:58;;;;;;;0.10;0.10;;;;;;;;;;6193667;23;20015;-87
2022/07/18 05:52:24;;;;;;;0.10;0.10;;;;;;;;;;6193757;23;20012;-91
2022/07/18 05:54:50;;;;;;;0.10;0.10;;;;;;;;;;6169051;23;20008;-90
2022/07/18 05:57:16;;;;;;;0.10;0.10;;;;;;;;;;6219079;23;20120;-91
2022/07/18 05:59:42;;;;;;;0.10;0.10;;;;;;;;;;6169211;23;20048;-91
2022/07/18 06:02:08;;;;;;;0.10;0.10;;;;;;;;;;6193890;23;20016;-88
2022/07/18 06:04:34;;;;;;;0.10;0.10;;;;;;;;;;6193726;23;20410;-87
2022/07/18 06:07:00;;;;;;;0.10;0.10;;;;;;;;;;6193550;23;20016;-86
2022/07/18 06:09:30;;;;;;;0.10;0.10;;;;;;;;;;6218532;23;20008;-87
2022/07/18 06:11:56;;;;;;;0.10;0.10;;;;;;;;;;6169573;23;20382;-87
2022/07/18 06:14:22;;;;;;;0.10;0.10;;;;;;;;;;6193816;23;20099;-87
2022/07/18 06:16:48;;;;;;;0.10;0.10;;;;;;;;;;6194154;23;20016;-87
2022/07/18 06:19:14;;;;;;;0.10;0.10;;;;;;;;;;6170266;23;20016;-86
2022/07/18 06:21:40;;;;;;;0.10;0.10;;;;;;;;;;6169691;23;20333;-90
2022/07/18 06:24:06;;;;;;;0.10;0.10;;;;;;;;;;6169116;23;20016;-88
2022/07/18 06:26:32;;;;;;;0.17;0.17;;;;;;;;;;6168617;23;20012;-88
2022/07/18 06:28:58;;;;;;;0.10;0.10;;;;;;;;;;6168627;23;20027;-87
2022/07/18 06:31:24;;;;;;;0.10;0.10;;;;;;;;;;6168451;23;20067;-86
2022/07/18 06:33:50;;;;;;;0.30;0.30;;;;;;;;;;6193733;23;20448;-87
2022/07/18 06:36:17;;;;;;;0.10;0.10;;;;;;;;;;6168721;23;20149;-87
2022/07/18 06:38:43;;;;;;;0.10;0.10;;;;;;;;;;6168732;23;20035;-86
2022/07/18 06:41:09;;;;;;;0.10;0.10;;;;;;;;;;6193305;23;20348;-87
2022/07/18 06:43:37;;;;;;;0.10;0.10;;;;;;;;;;6168338;23;20013;-87
2022/07/18 06:46:03;;;;;;;0.10;0.10;;;;;;;;;;6193385;23;20063;-88
2022/07/18 06:48:32;;;;;;;0.10;0.10;;;;;;;;;;6218081;23;20020;-87
2022/07/18 06:50:59;;;;;;;0.10;0.10;;;;;;;;;;6218211;23;20023;-86
2022/07/18 06:53:25;;;;;;;0.10;0.10;;;;;;;;;;6168460;23;20441;-86
2022/07/18 06:55:51;;;;;;;0.10;0.10;;;;;;;;;;6168554;23;20016;-88
2022/07/18 06:58:17;;;;;;;0.10;0.10;;;;;;;;;;6193249;23;20018;-87
2022/07/18 07:00:43;;;;;;;0.10;0.10;;;;;;;;;;6218057;23;20066;-86
2022/07/18 07:03:09;;;;;;;0.13;0.13;;;;;;;;;;6168288;23;20353;-86
2022/07/18 07:05:35;;;;;;;0.10;0.10;;;;;;;;;;6168242;23;20087;-87
2022/07/18 07:08:01;;;;;;;0.10;0.10;;;;;;;;;;6168146;23;20019;-88
2022/07/18 07:10:27;;;;;;;0.10;0.10;;;;;;;;;;6193431;23;20372;-88
2022/07/18 07:12:55;;;;;;;0.10;0.10;;;;;;;;;;6193260;23;20004;-90
2022/07/18 07:15:21;;;;;;;0.10;0.10;;;;;;;;;;6168584;23;20054;-92
2022/07/18 07:17:47;;;;;;;0.10;0.10;;;;;;;;;;6168463;23;20012;-89
2022/07/18 07:20:13;;;;;;;0.10;0.10;;;;;;;;;;6192954;23;20015;-91
2022/07/18 07:22:45;;;;;;;0.10;0.10;;;;;;;;;;6168134;23;20061;-90
2022/07/18 07:25:11;;;;;;;;;;;;;;;;;;6193759;23;20054;-90
2022/07/18 07:27:37;;;;;;;0.20;0.20;;;;;;;;;;6192938;23;19915;-91
2022/07/18 07:30:03;;;;;;;0.20;0.20;;;;;;;;;;6192850;23;20012;-87
2022/07/18 07:32:29;;;;;;;0.20;0.20;;;;;;;;;;6192589;23;20020;-86
2022/07/18 07:34:55;;;;;;;0.20;0.20;;;;;;;;;;6192896;23;20044;-88
2022/07/18 07:37:21;;;;;;;0.10;0.10;;;;;;;;;;6168296;23;20123;-87
2022/07/18 07:39:49;;;;;;;0.20;0.20;;;;;;;;;;6193195;23;20229;-86
2022/07/18 07:42:15;;;;;;;0.20;0.20;;;;;;;;;;6217671;23;20012;-87
2022/07/18 07:44:41;;;;;;;0.20;0.20;;;;;;;;;;6215685;23;20061;-88
2022/07/18 07:47:07;;;;;;;0.20;0.20;;;;;;;;;;6217414;23;20016;-87
2022/07/18 07:49:34;;;;;;;0.20;0.20;;;;;;;;;;6217216;23;20091;-88
2022/07/18 07:52:03;;;;;;;0.20;0.20;;;;;;;;;;6217626;23;20334;-87
2022/07/18 07:54:29;;;;;;;0.20;0.20;;;;;;;;;;6192997;23;20066;-87
2022/07/18 07:56:55;;;;;;;0.17;0.17;;;;;;;;;;6194117;23;20012;-88
2022/07/18 07:59:21;;;;;;;0.10;0.10;;;;;;;;;;6194593;23;20360;-87
2022/07/18 08:01:47;;;;;;;0.10;0.10;;;;;;;;;;6169812;23;20093;-88
2022/07/18 08:04:13;;;;;;;0.20;0.20;;;;;;;;;;6169683;23;20020;-87
2022/07/18 08:06:39;;;;;;;0.10;0.10;;;;;;;;;;6219053;23;20023;-88
2022/07/18 08:09:06;;;;;;;0.15;0.15;;;;;;;;;;6194619;23;20322;-88
2022/07/18 08:11:32;;;;;;;0.20;0.20;;;;;;;;;;6194802;23;20012;-88
2022/07/18 08:13:58;;;;;;;0.10;0.10;;;;;;;;;;6195075;23;20015;-87
2022/07/18 08:16:24;;;;;;;0.10;0.10;;;;;;;;;;6194997;23;20079;-88
2022/07/18 08:18:50;;;;;;;0.20;0.20;;;;;;;;;;6194480;23;20068;-87
2022/07/18 08:21:16;;;;;;;0.20;0.20;;;;;;;;;;6219446;23;20039;-87
2022/07/18 08:23:44;;;;;;;0.20;0.20;;;;;;;;;;6194454;23;20078;-87
2022/07/18 08:26:10;;;;;;;0.20;0.20;;;;;;;;;;6194923;23;20008;-89
2022/07/18 08:28:36;;;;;;;0.20;0.20;;;;;;;;;;6169954;23;20074;-88
2022/07/18 08:31:02;;;;;;;0.20;0.20;;;;;;;;;;6194349;23;20019;-88
2022/07/18 08:33:28;;;;;;;0.20;0.20;;;;;;;;;;6219581;23;20438;-87
2022/07/18 08:35:54;;;;;;;0.20;0.20;;;;;;;;;;6194485;23;20050;-89
2022/07/18 08:38:20;;;;;;;0.20;0.20;;;;;;;;;;6169558;23;20460;-88
2022/07/18 08:40:47;;;;;;;0.20;0.20;;;;;;;;;;6194347;23;20016;-88
2022/07/18 08:43:13;;;;;;;0.20;0.20;;;;;;;;;;6169781;23;20012;-88
2022/07/18 08:45:39;;;;;;;0.20;0.20;;;;;;;;;;6194413;23;20062;-88
2022/07/18 08:48:05;;;;;;;0.20;0.20;;;;;;;;;;6194201;23;20080;-88
2022/07/18 08:50:31;;;;;;;0.20;0.20;;;;;;;;;;6169349;23;20048;-88
2022/07/18 08:52:57;;;;;;;0.20;0.20;;;;;;;;;;6194601;23;20012;-90
2022/07/18 08:55:23;;;;;;;0.20;0.20;;;;;;;;;;6194759;23;20091;-93
2022/07/18 08:57:49;;;;;;;0.20;0.20;;;;;;;;;;6195180;23;20020;-91
2022/07/18 09:00:16;;;;;;;0.20;0.20;;;;;;;;;;6194481;23;20012;-89
2022/07/18 09:02:42;;;;;;;0.20;0.20;;;;;;;;;;6169549;23;20020;-88
2022/07/18 09:05:17;;;;;;;0.20;0.20;;;;;;;;;;6169696;23;20019;-90
2022/07/18 09:07:43;;;;;;;0.20;0.20;;;;;;;;;;6194043;23;20013;-90
2022/07/18 09:10:09;;;;;;;0.20;0.20;;;;;;;;;;6193967;23;20012;-88
2022/07/18 09:12:35;;;;;;;0.20;0.20;;;;;;;;;;6219600;23;20022;-87
2022/07/18 09:15:04;;;;;;;0.20;0.20;;;;;;;;;;6194446;23;20023;-85
2022/07/18 09:17:30;;;;;;;0.20;0.20;;;;;;;;;;6194500;23;20024;-86
2022/07/18 09:19:57;;;;;;;0.20;0.20;;;;;;;;;;6194487;23;20012;-87
2022/07/18 09:22:24;;;;;;;0.20;0.20;;;;;;;;;;6196443;23;20016;-88
2022/07/18 09:25:09;;;;;;;0.10;0.10;;;;;;;;;;6198662;23;20012;-86
2022/07/18 09:27:39;;;;;;;0.20;0.20;;;;;;;;;;6200881;23;20023;-87
2022/07/18 09:30:09;;;;;;;0.20;0.20;;;;;;;;;;6199653;23;20338;-89
2022/07/18 09:32:36;;;;;;;0.20;0.20;;;;;;;;;;6220882;22;20020;-88
2022/07/18 09:35:12;;;;;;;0.20;0.20;;;;;;;;;;6222718;22;20016;-88
2022/07/18 09:37:39;;;;;;;0.20;0.20;;;;;;;;;;6246872;22;20008;-87
2022/07/18 09:40:21;;;;;;;0.20;0.20;;;;;;;;;;6199282;23;20091;-88
2022/07/18 09:42:53;;;;;;;0.20;0.20;;;;;;;;;;6201113;23;20019;-87
2022/07/18 09:45:28;;;;;;;0.20;0.20;;;;;;;;;;6198653;23;20059;-87
2022/07/18 09:47:55;;;;;;;0.20;0.20;;;;;;;;;;6179231;23;20000;-87
2022/07/18 09:50:22;;;;;;;0.20;0.20;;;;;;;;;;6243275;22;20012;-88
2022/07/18 09:53:23;;;;;;;0.20;0.20;;;;;;;;;;6217846;23;20039;-89
2022/07/18 09:55:56;;;;;;;0.20;0.20;;;;;;;;;;6218084;22;20012;-88
2022/07/18 09:58:23;;;;;;;0.20;0.20;;;;;;;;;;6189877;23;20027;-88
2022/07/18 10:00:49;;;;;;;0.20;0.20;;;;;;;;;;6241218;23;20016;-89
2022/07/18 10:03:15;;;;;;;0.20;0.20;;;;;;;;;;6193295;22;20011;-89
2022/07/18 10:05:43;;;;;;;0.20;0.20;;;;;;;;;;6195665;23;20080;-89
2022/07/18 10:08:10;;;;;;;0.20;0.20;;;;;;;;;;6176036;23;20012;-89
2022/07/18 10:10:37;;;;;;;0.20;0.20;;;;;;;;;;6169351;23;20505;-88
2022/07/18 10:13:03;;;;;;;0.20;0.20;;;;;;;;;;6194831;23;20074;-88
2022/07/18 10:15:30;;;;;;;0.20;0.20;;;;;;;;;;6194742;23;20043;-88
2022/07/18 10:17:56;;;;;;;0.20;0.20;;;;;;;;;;6193833;23;20012;-87
2022/07/18 10:20:34;;;;;;;0.20;0.20;;;;;;;;;;6195300;23;20455;-88
2022/07/18 10:23:10;;;;;;;0.20;0.20;;;;;;;;;;6220422;23;20087;-86
2022/07/18 10:25:37;;;;;;;0.30;0.25;;;;;;;;;;6218307;23;20319;-87
2022/07/18 10:28:07;;;;;;;0.20;0.20;;;;;;;;;;6193378;23;20458;-86
2022/07/18 10:30:34;;;;;;;0.20;0.20;;;;;;;;;;6194446;23;20043;-86
2022/07/18 10:33:00;;;;;;;0.20;0.20;;;;;;;;;;6193542;23;20039;-87
2022/07/18 10:35:45;;;;;;;0.20;0.20;;;;;;;;;;6192642;23;20019;-86
2022/07/18 10:38:21;;;;;;;0.20;0.20;;;;;;;;;;6218102;23;20051;-87
2022/07/18 10:41:13;;;;;;;0.20;0.20;;;;;;;;;;6192978;23;20016;-87
2022/07/18 10:43:43;;;;;;;0.20;0.20;;;;;;;;;;6212271;23;20098;-88
2022/07/18 10:46:10;;;;;;;0.20;0.20;;;;;;;;;;6168380;23;20065;-87
2022/07/18 10:48:40;;;;;;;0.20;0.20;;;;;;;;;;6193316;23;20012;-87
2022/07/18 10:51:06;;;;;;;0.20;0.20;;;;;;;;;;6193301;23;20433;-87
2022/07/18 10:53:55;;;;;;;0.20;0.20;;;;;;;;;;6193389;23;20012;-87
2022/07/18 10:56:36;;;;;;;0.20;0.20;;;;;;;;;;6193129;23;20039;-85
2022/07/18 10:59:02;;;;;;;;;;;;;;;;;;6218348;23;20307;-86
2022/07/18 11:01:28;;;;;;;0.20;0.20;;;;;;;;;;6244992;23;19961;-87
2022/07/18 11:04:13;;;;;;;0.20;0.20;;;;;;;;;;6193037;23;20043;-87
2022/07/18 11:07:03;;;;;;;0.20;0.20;;;;;;;;;;6217713;23;20016;-86
2022/07/18 11:09:33;;;;;;;0.20;0.20;;;;;;;;;;6193060;23;20018;-86
2022/07/18 11:12:17;;;;;;;0.20;0.20;;;;;;;;;;6217625;23;20016;-86
2022/07/18 11:15:02;;;;;;;0.20;0.20;;;;;;;;;;6217817;23;20014;-86
2022/07/18 11:17:47;;;;;;;0.20;0.20;;;;;;;;;;6217793;23;20061;-86
2022/07/18 11:20:25;;;;;;;0.20;0.20;;;;;;;;;;6217558;23;20039;-86
2022/07/18 11:22:51;;;;;;;0.20;0.20;;;;;;;;;;6217636;23;20469;-86
2022/07/18 11:25:17;;;;;;;0.20;0.20;;;;;;;;;;6217674;23;20016;-87
2022/07/18 11:27:43;;;;;;;0.20;0.20;;;;;;;;;;6192856;23;20024;-87
2022/07/18 11:30:10;;;;;;;0.20;0.20;;;;;;;;;;6192774;23;20023;-87
2022/07/18 11:32:36;;;;;;;0.20;0.20;;;;;;;;;;6192542;23;20012;-86
2022/07/18 11:35:05;;;;;;;0.20;0.20;;;;;;;;;;6192707;23;20092;-88
2022/07/18 11:37:31;;;;;;;0.20;0.20;;;;;;;;;;6169078;23;20024;-88
2022/07/18 11:40:04;;;;;;;0.20;0.20;;;;;;;;;;6167893;23;20012;-88
2022/07/18 11:42:39;;;;;;;0.20;0.20;;;;;;;;;;6192793;23;20012;-88
2022/07/18 11:45:06;;;;;;;0.20;0.20;;;;;;;;;;6217833;23;20038;-88
2022/07/18 11:47:32;;;;;;;0.20;0.20;;;;;;;;;;6167650;23;20025;-87
2022/07/18 11:50:01;;;;;;;0.20;0.20;;;;;;;;;;6167795;23;20008;-88
2022/07/18 11:52:27;;;;;;;0.20;0.20;;;;;;;;;;6192620;23;20083;-89
2022/07/18 11:54:53;;;;;;;0.20;0.20;;;;;;;;;;6217859;23;20015;-88
2022/07/18 11:57:28;;;;;;;0.20;0.20;;;;;;;;;;6192769;23;20349;-91
2022/07/18 11:59:54;;;;;;;0.20;0.20;;;;;;;;;;6192693;23;20016;-90
2022/07/18 12:02:20;;;;;;;0.20;0.20;;;;;;;;;;6167876;23;20035;-88
2022/07/18 12:04:46;;;;;;;0.20;0.20;;;;;;;;;;6167889;23;20023;-88
2022/07/18 12:07:19;;;;;;;0.20;0.20;;;;;;;;;;6217626;23;20019;-88
2022/07/18 12:09:45;;;;;;;0.20;0.20;;;;;;;;;;6217521;23;20012;-88
2022/07/18 12:12:11;;;;;;;0.20;0.20;;;;;;;;;;6192624;23;20083;-86
2022/07/18 12:14:38;;;;;;;0.20;0.20;;;;;;;;;;6217152;23;20051;-86
2022/07/18 12:17:05;;;;;;;0.20;0.20;;;;;;;;;;6244578;23;20023;-87
2022/07/18 12:19:35;;;;;;;0.20;0.20;;;;;;;;;;6192690;23;20023;-86
2022/07/18 12:22:04;;;;;;;0.20;0.20;;;;;;;;;;6192684;23;20020;-87
2022/07/18 12:24:30;;;;;;;0.20;0.20;;;;;;;;;;6217501;23;20405;-86
2022/07/18 12:27:16;;;;;;;0.20;0.20;;;;;;;;;;6217254;23;20020;-86
2022/07/18 12:29:59;;;;;;;0.20;0.20;;;;;;;;;;6192225;23;20062;-86
2022/07/18 12:32:25;;;;;;;0.20;0.20;;;;;;;;;;6192502;23;20023;-86
2022/07/18 12:34:58;;;;;;;0.20;0.20;;;;;;;;;;6192607;23;20043;-87
2022/07/18 12:37:25;;;;;;;0.20;0.20;;;;;;;;;;6192457;23;20099;-87
2022/07/18 12:39:56;;;;;;;0.20;0.20;;;;;;;;;;6192530;23;20495;-86
2022/07/18 12:42:33;;;;;;;0.20;0.20;;;;;;;;;;6193509;23;20012;-87
2022/07/18 12:44:58;;;;;;;0.20;0.20;;;;;;;;;;6194510;23;20245;-87
2022/07/18 12:47:25;;;;;;;0.20;0.20;;;;;;;;;;6194263;23;20432;-87
2022/07/18 12:49:51;;;;;;;0.20;0.20;;;;;;;;;;6219026;23;20016;-86
2022/07/18 12:52:18;;;;;;;0.20;0.20;;;;;;;;;;6219097;23;20299;-87
2022/07/18 12:54:44;;;;;;;0.10;0.10;;;;;;;;;;6219588;23;20012;-87
2022/07/18 12:57:10;;;;;;;0.20;0.20;;;;;;;;;;6194523;23;20091;-88
2022/07/18 12:59:35;;;;;;;0.13;0.13;;;;;;;;;;6194308;23;20016;-87
2022/07/18 13:02:02;;;;;;;0.20;0.20;;;;;;;;;;6219143;23;20012;-87
2022/07/18 13:04:28;;;;;;;0.40;0.40;;;;;;;;;;6194066;23;20027;-88
2022/07/18 13:06:54;;;;;;;0.20;0.20;;;;;;;;;;6194081;23;20422;-87
2022/07/18 13:09:20;;;;;;;0.20;0.20;;;;;;;;;;6194097;23;20008;-88
2022/07/18 13:11:47;;;;;;;0.20;0.20;;;;;;;;;;6194146;23;20035;-89
2022/07/18 13:14:13;;;;;;;0.10;0.10;;;;;;;;;;6193912;23;20380;-91
2022/07/18 13:16:39;;;;;;;0.20;0.20;;;;;;;;;;6194011;23;20016;-88
2022/07/18 13:19:05;;;;;;;0.20;0.20;;;;;;;;;;6218711;23;20009;-89
2022/07/18 13:21:31;;;;;;;0.20;0.20;;;;;;;;;;6193360;23;20096;-89
2022/07/18 13:23:57;;;;;;;0.20;0.20;;;;;;;;;;6194046;23;20019;-87
2022/07/18 13:26:23;;;;;;;0.20;0.20;;;;;;;;;;6219262;23;20043;-88
2022/07/18 13:28:49;;;;;;;0.20;0.20;;;;;;;;;;6169515;23;20377;-88
2022/07/18 13:31:15;;;;;;;0.20;0.20;;;;;;;;;;6219600;23;20018;-89
2022/07/18 13:33:47;;;;;;;0.20;0.20;;;;;;;;;;6218766;23;20012;-87
2022/07/18 13:36:13;;;;;;;0.20;0.20;;;;;;;;;;6169355;23;20426;-88
2022/07/18 13:38:39;;;;;;;0.20;0.20;;;;;;;;;;6193791;23;20016;-87
2022/07/18 13:41:05;;;;;;;0.20;0.20;;;;;;;;;;6218759;23;20151;-88
2022/07/18 13:43:31;;;;;;;0.10;0.10;;;;;;;;;;6218767;23;20012;-87
2022/07/18 13:45:57;;;;;;;0.20;0.20;;;;;;;;;;6193773;23;20020;-87
2022/07/18 13:48:23;;;;;;;0.43;0.43;;;;;;;;;;6193616;23;20013;-88
2022/07/18 13:50:49;;;;;;;0.20;0.20;;;;;;;;;;6193650;23;20016;-88
2022/07/18 13:53:15;;;;;;;0.20;0.20;;;;;;;;;;6217993;23;20012;-87
2022/07/18 13:55:41;;;;;;;0.20;0.20;;;;;;;;;;6193646;23;20492;-87
2022/07/18 13:58:07;;;;;;;0.20;0.20;;;;;;;;;;6193724;23;20091;-87
2022/07/18 14:00:33;;;;;;;0.20;0.20;;;;;;;;;;6218867;23;20016;-87
2022/07/18 14:02:59;;;;;;;0.20;0.20;;;;;;;;;;6193227;23;20106;-89
2022/07/18 14:05:25;;;;;;;0.20;0.20;;;;;;;;;;6193961;23;20043;-89
2022/07/18 14:07:51;;;;;;;0.20;0.20;;;;;;;;;;6218292;23;20421;-87
2022/07/18 14:10:17;;;;;;;0.20;0.20;;;;;;;;;;6193311;23;20012;-87
2022/07/18 14:12:43;;;;;;;0.20;0.20;;;;;;;;;;6168831;23;20315;-88
2022/07/18 14:15:09;;;;;;;0.20;0.20;;;;;;;;;;6193484;23;20016;-89
2022/07/18 14:17:35;;;;;;;0.20;0.20;;;;;;;;;;6168461;23;20034;-89
2022/07/18 14:20:01;;;;;;;0.20;0.20;;;;;;;;;;6193066;23;20461;-90
2022/07/18 14:22:27;;;;;;;0.20;0.20;;;;;;;;;;6193425;23;20011;-90
2022/07/18 14:24:53;;;;;;;0.17;0.17;;;;;;;;;;6168658;23;20441;-90
2022/07/18 14:27:19;;;;;;;0.20;0.20;;;;;;;;;;6192988;23;20353;-89
2022/07/18 14:29:47;;;;;;;0.20;0.20;;;;;;;;;;6168490;23;20015;-90
2022/07/18 14:32:13;;;;;;;0.20;0.20;;;;;;;;;;6168412;23;20055;-89
2022/07/18 14:34:39;;;;;;;0.20;0.20;;;;;;;;;;6169573;23;20016;-90
2022/07/18 14:37:05;;;;;;;0.20;0.20;;;;;;;;;;6218374;23;20046;-90
2022/07/18 14:39:31;;;;;;;0.10;0.10;;;;;;;;;;6193231;23;20055;-92
2022/07/18 14:41:57;;;;;;;0.20;0.20;;;;;;;;;;6169182;23;20035;-91
2022/07/18 14:44:24;;;;;;;0.20;0.20;;;;;;;;;;6193139;23;20012;-91
2022/07/18 14:46:50;;;;;;;0.20;0.20;;;;;;;;;;6193604;23;20016;-92